Grimes, Alabama
Current Conditions -  °F | °C
As of 9:53 AM on Tuesday 21 Oct 2014 (Local Time) from KDHN Reporting Station
Clear Clear  
Wind Chill: 69°   Ceiling: Unl
Heat Index: 69°   Visibility: 10mi
Dew Point: 55°   Wind: 6mph
Humidity: 61%   Direction: 360°N
Pressure: 30.08"   Gusts: NA
Location:  31.2035°N, 85.4998°W
Report Text: KDHN 211453Z 36005KT 10SM CLR 21/13 A3008 RMK AO2 SLP181 T02060128 50008
Loading
Personal Weather Stations






























Interactive Weather Map
Tropical Storm Tracking
New forecast layout! Learn more

10-Day Weather Forecast

Advertisements
Track Severe Weather on mobile